Meteo Giornale » Osservazioni meteo Svizzera » Locarno

ore: 07:50 - Osservazioni Meteo Locarno
Lat. 46° 10' N Lon. 8° 53' E Alt. 600 metri s.l.m.

sereno Europe/Zurich

-3 °C

Sereno

Temp. 24 Ore

-4 °C

5 °C

Nord

0 Km/h

Dew point -4 °C

Umidità 92 %

Visibilità  10 Km

Il sole sorge alle ore 07:59

Il sole tramonta alle ore 17:09

Data e Ora Cielo e Fenomeni T °C DP °C Um. % Pres. hPa Vis. km Vento km/h
Oggi h: 07:50 sereno Sereno -3 -4 92 1014 10 N 0
Oggi h: 07:20 sereno Sereno -2 -4 86 1014 10 N 0
Oggi h: 06:50 sereno Sereno -2 -4 86 1014 10 N 3.7
Oggi h: 06:20 sereno Sereno -2 -3 92 1014 10 N 5.5
Oggi h: 05:50 sereno Sereno -3 -3 100 1015 10 N 3.7
Oggi h: 04:50 poco_nuvoloso Poco Nuvoloso -2 -3 92 1016 10 N 5.5
Oggi h: 04:20 sereno Sereno -2 -3 92 1016 10 N 0
Oggi h: 03:50 sereno Sereno -3 -3 100 1016 10 N 3.7
Oggi h: 03:20 sereno Sereno -3 -3 100 1016 10 N 3.7
Oggi h: 02:50 sereno Sereno -2 -2 100 1016 10 N 3.7
Oggi h: 02:20 sereno Sereno -2 -3 92 1016 10 N 0
Oggi h: 01:50 poco_nuvoloso Poco Nuvoloso -2 -3 92 1017 10 N 3.7
Oggi h: 01:20 sereno Sereno -2 -3 92 1017 10 N 0
Oggi h: 00:50 sereno Sereno -2 -3 92 1018 10 N 0
Oggi h: 00:20 sereno Sereno -2 -3 92 1018 10 N 3.7
Ieri h: 23:50 sereno Sereno -2 -3 92 1019 10 N 1.8
Ieri h: 23:20 sereno Sereno -2 -3 92 1019 10 N 0
Ieri h: 22:50 sereno Sereno -2 -2 100 1019 9 N 3.7
Ieri h: 22:20 sereno Sereno -2 -3 92 1019 8 N 1.8
Ieri h: 21:50 poco_nuvoloso Poco Nuvoloso -2 -3 92 1019 8 N 0
Ieri h: 21:20 sereno Sereno -2 -3 92 1020 9 N 0
Ieri h: 20:50 sereno Sereno -2 -3 92 1020 10 N 0
Ieri h: 20:20 sereno Sereno -2 -3 92 1020 10 N 3.7
Ieri h: 19:50 sereno Sereno -2 -3 92 1020 10 N 3.7
Ieri h: 19:20 sereno Sereno -0 -3 80 1020 10 N 0
Ieri h: 18:50 sereno Sereno -1 -2 92 1020 10 N 0
Ieri h: 18:20 sereno Sereno -1 -3 86 1020 10 N 0
Ieri h: 17:50 sereno Sereno 1 -2 80 1020 10 N 0
Ieri h: 17:20 sereno Sereno 2 -3 69 1019 10 N 0
Ieri h: 16:50 sereno Sereno 2 -3 69 1019 10 N 3.7
Ieri h: 16:20 poco_nuvoloso Poco Nuvoloso 3 -3 64 1019 10 N 0
Ieri h: 15:50 sereno Sereno 4 -3 60 1019 10 N 3.7
Ieri h: 15:20 sereno Sereno 4 -3 60 1019 10 N 3.7
Ieri h: 14:50 sereno Sereno 5 -1 65 1019 10 N 5.5
Ieri h: 14:20 sereno Sereno 4 -1 69 1020 10 SO 7.4
Ieri h: 13:20 sereno Sereno 4 -2 64 1021 10 O/SO 7.4
Ieri h: 12:50 sereno Sereno 3 -1 74 1021 10 N 5.5
Ieri h: 12:20 sereno Sereno 3 -1 74 1022 10 N 5.5
Ieri h: 11:50 sereno Sereno 2 -1 80 1022 10 N 5.5
Ieri h: 11:20 sereno Sereno 3 -1 74 1022 10 N 0
Ieri h: 10:50 sereno Sereno 1 -2 80 1022 10 N 1.8
Ieri h: 10:20 sereno Sereno -0 -2 86 1022 10 N 3.7
Ieri h: 09:50 poco_nuvoloso Poco Nuvoloso -1 -2 92 1022 10 N 0
Ieri h: 09:20 nuvoloso Nuvoloso -3 -3 100 1022 10 N 1.8
Ieri h: 08:50 poco_nuvoloso Poco Nuvoloso -4 -4 100 1022 10 N 1.8
Ieri h: 08:20 poco_nuvoloso Poco Nuvoloso -3 -3 100 1022 10 N 0
Ieri h: 07:50 sereno Sereno -3 -3 100 1022 10 N 0